Time;durP1;ratioP1;P1;durP2;ratioP2;P2;SDS_P1;SDS_P2;PMS_P1;PMS_P2;Temp;Humidity;BMP_temperature;BMP_pressure;BME280_temperature;BME280_humidity;BME280_pressure;Samples;Min_cycle;Max_cycle;Signal;HPM_P1;HPM_P2
2024/01/10 00:02:06;;;;;;;3.30;3.00;;;1.10;81.40;;;;;;5989194;23;20023;-87
2024/01/10 00:04:40;;;;;;;3.70;3.30;;;1.10;81.00;;;;;;6015427;23;20030;-87
2024/01/10 00:07:16;;;;;;;3.05;2.83;;;1.10;80.10;;;;;;6013117;23;20027;-86
2024/01/10 00:10:55;;;;;;;3.47;3.17;;;1.00;80.60;;;;;;6036817;23;20031;-87
2024/01/10 00:13:59;;;;;;;;;;;;;;;;;;;;;
2024/01/10 00:17:33;;;;;;;;;;;;;;;;;;;;;
2024/01/10 00:20:17;;;;;;;4.13;3.42;;;1.00;80.30;;;;;;6043210;23;20492;-86
2024/01/10 00:23:18;;;;;;;3.53;3.22;;;0.90;79.70;;;;;;6047323;23;20062;-86
2024/01/10 00:26:17;;;;;;;3.22;3.03;;;0.90;80.30;;;;;;6074627;23;20070;-87
2024/01/10 00:29:09;;;;;;;3.55;3.22;;;0.90;80.10;;;;;;5912455;24;20029;-86
2024/01/10 00:35:12;;;;;;;;;;;;;;;;;;;;;
2024/01/10 00:37:45;;;;;;;2.88;2.35;;;0.80;80.20;;;;;;6042885;23;20026;-83
2024/01/10 00:40:29;;;;;;;3.63;2.45;;;0.70;78.40;;;;;;6094867;23;20037;-82
2024/01/10 00:46:36;;;;;;;;;;;0.80;79.50;;;;;;6070631;23;20026;-83
2024/01/10 00:49:22;;;;;;;;;;;;;;;;;;;;;
2024/01/10 00:52:15;;;;;;;1.95;1.85;;;0.70;79.00;;;;;;6045226;23;20053;-83
2024/01/10 00:55:02;;;;;;;2.20;2.10;;;0.70;78.70;;;;;;6063944;23;20054;-83
2024/01/10 00:57:51;;;;;;;2.67;2.47;;;0.60;78.30;;;;;;6093705;23;20025;-84
2024/01/10 01:00:58;;;;;;;2.08;1.98;;;0.60;77.50;;;;;;5947456;24;20029;-83
2024/01/10 01:03:41;;;;;;;;;;;;;;;;;;;;;
2024/01/10 01:06:29;;;;;;;2.40;2.03;;;0.60;77.00;;;;;;6053120;23;20082;-85
2024/01/10 01:09:26;;;;;;;2.50;2.30;;;0.60;77.90;;;;;;6077783;23;20022;-86
2024/01/10 01:12:33;;;;;;;;;;;;;;;;;;;;;
2024/01/10 01:15:34;;;;;;;;;;;;;;;;;;;;;
2024/01/10 01:19:13;;;;;;;2.53;2.30;;;0.50;76.90;;;;;;6062864;23;20374;-86
2024/01/10 01:21:58;;;;;;;2.40;2.20;;;0.40;77.20;;;;;;6053356;23;20022;-87
2024/01/10 01:25:23;;;;;;;2.72;1.80;;;0.40;77.20;;;;;;6079343;23;20023;-87
2024/01/10 01:28:43;;;;;;;;;;;;;;;;;;;;;
2024/01/10 01:31:59;;;;;;;;;;;;;;;;;;;;;
2024/01/10 01:35:42;;;;;;;;;;;;;;;;;;;;;
2024/01/10 01:38:18;;;;;;;2.30;1.60;;;0.30;77.50;;;;;;6047930;23;20086;-87
2024/01/10 01:40:50;;;;;;;3.42;2.13;;;0.30;77.10;;;;;;6109297;23;20058;-86
2024/01/10 01:43:26;;;;;;;2.15;1.95;;;0.30;77.30;;;;;;6063285;23;20026;-84
2024/01/10 01:46:03;;;;;;;2.58;1.30;;;0.30;76.60;;;;;;6083313;23;20026;-87
2024/01/10 01:48:39;;;;;;;1.60;1.50;;;0.20;76.40;;;;;;6065323;23;20046;-86
2024/01/10 01:51:10;;;;;;;3.05;1.98;;;0.20;77.20;;;;;;6113598;23;20030;-85
2024/01/10 01:53:59;;;;;;;2.83;1.63;;;0.10;77.30;;;;;;6080140;23;20383;-84
2024/01/10 01:57:15;;;;;;;1.50;1.23;;;0.10;77.00;;;;;;6074619;23;20031;-83
2024/01/10 02:04:29;;;;;;;1.30;1.20;;;-0.10;76.90;;;;;;6047625;23;20067;-83
2024/01/10 02:07:50;;;;;;;1.35;1.08;;;-0.20;76.80;;;;;;5943883;24;20039;-83
2024/01/10 02:15:06;;;;;;;;;;;;;;;;;;;;;
2024/01/10 02:18:37;;;;;;;;;;;;;;;;;;;;;
2024/01/10 02:21:38;;;;;;;1.27;1.10;;;-0.90;76.80;;;;;;5826239;24;20037;-88
2024/01/10 02:24:46;;;;;;;1.00;0.90;;;-0.90;76.40;;;;;;5824311;24;20574;-86
2024/01/10 02:27:46;;;;;;;;;;;;;;;;;;;;;
2024/01/10 02:30:47;;;;;;;1.00;0.95;;;-1.00;76.20;;;;;;5824054;24;20441;-84
2024/01/10 02:41:02;;;;;;;;;;;;;;;;;;;;;
2024/01/10 02:44:01;;;;;;;;;;;;;;;;;;;;;
2024/01/10 02:47:06;;;;;;;3.15;1.10;;;-1.20;75.30;;;;;;5853214;24;20368;-82
2024/01/10 02:50:03;;;;;;;;;;;;;;;;;;;;;
2024/01/10 02:52:48;;;;;;;1.05;0.95;;;-1.50;75.30;;;;;;6040985;23;20023;-83
2024/01/10 02:55:29;;;;;;;;;;;;;;;;;;;;;
2024/01/10 02:58:10;;;;;;;1.98;1.00;;;-1.60;75.50;;;;;;6094984;23;20034;-83
2024/01/10 03:01:11;;;;;;;0.98;0.90;;;-1.60;75.10;;;;;;6046549;23;20069;-82
2024/01/10 03:03:57;;;;;;;1.75;0.77;;;-1.60;75.50;;;;;;6068330;23;20029;-82
2024/01/10 03:07:01;;;;;;;1.15;1.05;;;-1.60;75.80;;;;;;6046726;23;20466;-82
2024/01/10 03:09:56;;;;;;;1.55;1.20;;;-1.60;76.00;;;;;;6069037;23;20079;-83
2024/01/10 03:12:42;;;;;;;;;;;;;;;;;;;;;
2024/01/10 03:16:02;;;;;;;1.25;1.13;;;-1.70;75.50;;;;;;6047141;23;20030;-84
2024/01/10 03:18:48;;;;;;;1.85;1.20;;;-1.70;75.80;;;;;;6095753;23;20046;-84
2024/01/10 03:21:38;;;;;;;2.33;1.40;;;-1.70;76.10;;;;;;6071171;23;20038;-84
2024/01/10 03:24:28;;;;;;;;;;;;;;;;;;;;;
2024/01/10 03:27:03;;;;;;;1.88;1.20;;;-1.80;76.20;;;;;;5981715;23;20031;-84
2024/01/10 03:29:40;;;;;;;1.35;1.25;;;-1.90;75.60;;;;;;6053333;23;20083;-82
2024/01/10 03:32:22;;;;;;;1.92;1.40;;;-1.90;75.50;;;;;;6053633;23;20216;-83
2024/01/10 03:34:55;;;;;;;1.88;1.33;;;-1.90;76.20;;;;;;6049494;23;20018;-81
2024/01/10 03:37:43;;;;;;;2.55;1.50;;;-1.90;76.20;;;;;;6071775;23;20049;-83
2024/01/10 03:40:27;;;;;;;1.33;1.17;;;-1.90;76.00;;;;;;6096377;23;20037;-82
2024/01/10 03:43:12;;;;;;;;;;;;;;;;;;;;;
2024/01/10 03:46:01;;;;;;;3.25;1.48;;;-1.90;75.60;;;;;;6075844;23;20033;-86
2024/01/10 03:48:38;;;;;;;3.60;1.90;;;-1.90;75.80;;;;;;6098511;23;20033;-86
2024/01/10 03:51:23;;;;;;;1.65;1.40;;;-1.90;75.30;;;;;;6073190;23;20022;-85
2024/01/10 03:59:02;;;;;;;2.33;1.80;;;-1.90;76.00;;;;;;6086518;23;20026;-87
2024/01/10 04:02:23;;;;;;;6.38;2.53;;;-2.00;76.00;;;;;;5905492;24;20033;-85
2024/01/10 04:05:16;;;;;;;1.98;1.70;;;-2.00;76.50;;;;;;6050976;23;20037;-83
2024/01/10 04:08:13;;;;;;;3.55;2.20;;;-2.00;75.90;;;;;;6095479;23;20037;-83
2024/01/10 04:10:44;;;;;;;2.85;2.10;;;-2.00;76.70;;;;;;6095114;23;20066;-82
2024/01/10 04:13:17;;;;;;;2.80;2.00;;;-2.00;76.50;;;;;;6096161;23;20030;-82
2024/01/10 04:16:00;;;;;;;2.13;1.60;;;-2.00;76.40;;;;;;6050546;23;20418;-86
2024/01/10 04:18:32;;;;;;;6.65;2.53;;;-2.00;76.70;;;;;;6072712;23;20466;-85
2024/01/10 04:21:28;;;;;;;;;;;;;;;;;;;;;
2024/01/10 04:24:51;;;;;;;4.25;2.22;;;-2.00;76.30;;;;;;6049762;23;20535;-86
2024/01/10 04:28:03;;;;;;;4.15;1.98;;;-2.10;75.90;;;;;;6108810;23;20348;-85
2024/01/10 04:31:30;;;;;;;4.72;2.58;;;-2.00;76.10;;;;;;6091831;23;20026;-87
2024/01/10 04:46:15;;;;;;;;;;;;;;;;;;;;;
2024/01/10 04:49:55;;;;;;;;;;;;;;;;;;;;;
2024/01/10 04:53:45;;;;;;;;;;;;;;;;;;;;;
2024/01/10 04:57:34;;;;;;;;;;;;;;;;;;;;;
2024/01/10 05:00:19;;;;;;;2.22;2.03;;;-2.10;75.30;;;;;;5945531;24;20600;-86
2024/01/10 05:02:53;;;;;;;2.55;2.33;;;-2.20;75.40;;;;;;6016504;23;20113;-89
2024/01/10 05:05:34;;;;;;;4.90;2.20;;;-2.20;75.40;;;;;;6041017;23;20086;-84
2024/01/10 05:08:02;;;;;;;3.33;2.03;;;-2.30;76.20;;;;;;6063755;23;20023;-88
2024/01/10 05:10:34;;;;;;;4.55;3.00;;;-2.20;76.30;;;;;;6039048;23;20428;-85
2024/01/10 05:14:02;;;;;;;5.43;3.10;;;-2.40;75.90;;;;;;6038875;23;20026;-88
2024/01/10 05:17:02;;;;;;;3.20;2.50;;;-2.40;75.70;;;;;;5835522;24;20331;-89
2024/01/10 05:19:57;;;;;;;2.83;2.30;;;-2.40;76.00;;;;;;5904685;24;20089;-89
2024/01/10 05:22:25;;;;;;;3.80;2.55;;;-2.30;75.90;;;;;;5903905;24;20039;-88
2024/01/10 05:25:06;;;;;;;6.10;3.65;;;-2.40;75.60;;;;;;5972877;23;20397;-85
2024/01/10 05:27:37;;;;;;;4.53;2.50;;;-2.40;75.90;;;;;;6065999;23;20101;-84
2024/01/10 05:30:20;;;;;;;4.70;2.20;;;-2.40;75.50;;;;;;6017014;23;20026;-86
2024/01/10 05:33:30;;;;;;;3.28;2.60;;;-2.40;75.60;;;;;;6040892;23;20031;-86
2024/01/10 05:36:21;;;;;;;5.90;3.40;;;-2.50;75.10;;;;;;6067284;23;20359;-86
2024/01/10 05:39:26;;;;;;;;;;;;;;;;;;;;;
2024/01/10 05:42:33;;;;;;;3.30;2.67;;;-2.50;75.40;;;;;;6059882;23;20026;-84
2024/01/10 05:45:31;;;;;;;;;;;;;;;;;;;;;
2024/01/10 05:48:29;;;;;;;5.55;3.65;;;-2.60;75.10;;;;;;6031758;23;20094;-86
2024/01/10 05:51:05;;;;;;;8.18;3.13;;;-2.70;74.60;;;;;;6040229;23;20030;-86
2024/01/10 05:54:27;;;;;;;3.15;2.85;;;-2.70;74.80;;;;;;6040949;23;20033;-85
2024/01/10 05:57:49;;;;;;;;;;;;;;;;;;;;;
2024/01/10 06:01:39;;;;;;;;;;;;;;;;;;;;;
2024/01/10 06:05:00;;;;;;;3.92;2.65;;;-2.60;75.50;;;;;;5976406;23;20031;-84
2024/01/10 06:08:05;;;;;;;5.78;3.45;;;-2.60;74.80;;;;;;6023622;23;20414;-85
2024/01/10 06:13:43;;;;;;;5.72;3.47;;;-2.80;75.10;;;;;;6006956;23;20063;-87
2024/01/10 06:16:16;;;;;;;4.30;3.40;;;-2.90;75.00;;;;;;6041293;23;20047;-85
2024/01/10 06:18:44;;;;;;;4.97;3.50;;;-2.80;75.60;;;;;;6041534;23;20101;-85
2024/01/10 06:21:36;;;;;;;19.85;7.40;;;-2.80;75.60;;;;;;6065792;23;20036;-83
2024/01/10 06:24:16;;;;;;;5.70;2.78;;;-2.80;75.50;;;;;;6066917;23;20027;-86
2024/01/10 06:27:02;;;;;;;5.45;3.08;;;-2.60;75.50;;;;;;6041158;23;20435;-83
2024/01/10 06:29:41;;;;;;;9.63;6.68;;;-2.60;75.50;;;;;;6026465;23;20033;-90
2024/01/10 06:35:14;;;;;;;8.32;4.28;;;-2.70;74.50;;;;;;5108534;27;20398;-90
2024/01/10 06:38:51;;;;;;;5.40;4.20;;;-2.60;75.20;;;;;;5048668;28;20040;-86
2024/01/10 06:42:37;;;;;;;;;;;;;;;;;;;;;
2024/01/10 06:46:36;;;;;;;7.57;3.60;;;-2.60;75.20;;;;;;5051844;28;20056;-85
2024/01/10 06:50:38;;;;;;;8.30;3.88;;;-2.60;75.20;;;;;;5002570;28;20045;-90
2024/01/10 06:58:24;;;;;;;8.90;4.07;;;-2.70;75.10;;;;;;4904752;29;20051;-90
2024/01/10 07:01:23;;;;;;;5.00;3.40;;;-2.80;75.20;;;;;;5060312;28;20041;-90
2024/01/10 07:04:47;;;;;;;;;;;;;;;;;;;;;
2024/01/10 07:08:45;;;;;;;;;;;;;;;;;;;;;
2024/01/10 07:12:28;;;;;;;5.38;3.55;;;-2.80;75.90;;;;;;4918710;29;20048;-86
2024/01/10 07:15:07;;;;;;;10.57;6.32;;;-2.80;75.60;;;;;;4991079;28;20056;-86
2024/01/10 07:17:40;;;;;;;6.68;4.85;;;-2.80;75.90;;;;;;5050707;28;20041;-86
2024/01/10 07:20:47;;;;;;;10.32;5.22;;;-2.90;75.80;;;;;;5053565;28;20040;-86
2024/01/10 07:23:46;;;;;;;12.55;5.20;;;-2.80;75.70;;;;;;5003636;28;20059;-86
2024/01/10 07:26:28;;;;;;;;;;;;;;;;;;;;;
2024/01/10 07:29:45;;;;;;;9.20;5.30;;;-2.80;75.90;;;;;;5010006;28;20096;-85
2024/01/10 07:32:47;;;;;;;;;;;;;;;;;;;;;
2024/01/10 07:36:23;;;;;;;;;;;;;;;;;;;;;
2024/01/10 07:39:50;;;;;;;9.85;5.03;;;-2.80;75.70;;;;;;4870805;29;20101;-85
2024/01/10 07:42:19;;;;;;;11.77;5.60;;;-2.80;75.80;;;;;;4843209;29;20469;-86
2024/01/10 07:44:53;;;;;;;14.07;6.70;;;-2.80;75.50;;;;;;4969694;28;20082;-85
2024/01/10 07:47:22;;;;;;;8.05;5.57;;;-2.80;75.50;;;;;;4994384;28;20056;-86
2024/01/10 07:49:52;;;;;;;15.43;6.40;;;-2.90;75.40;;;;;;4991722;28;20530;-86
2024/01/10 07:52:30;;;;;;;11.00;6.07;;;-2.90;75.60;;;;;;5025679;28;20064;-86
2024/01/10 07:55:06;;;;;;;18.48;7.55;;;-2.80;75.60;;;;;;5027654;28;20053;-86
2024/01/10 07:57:37;;;;;;;14.13;8.13;;;-2.60;76.00;;;;;;5032673;28;20052;-86
2024/01/10 08:00:10;;;;;;;18.08;7.82;;;-2.70;75.50;;;;;;5034624;28;20420;-87
2024/01/10 08:02:57;;;;;;;;;;;;;;;;;;;;;
2024/01/10 08:06:07;;;;;;;17.38;10.65;;;-2.70;75.50;;;;;;4961158;28;20050;-92
2024/01/10 08:09:24;;;;;;;18.83;9.88;;;-2.60;75.60;;;;;;5000160;28;20163;-91
2024/01/10 08:12:56;;;;;;;;;;;;;;;;;;;;;
2024/01/10 08:16:01;;;;;;;20.65;11.52;;;-2.60;75.10;;;;;;5013719;28;20101;-90
2024/01/10 08:18:40;;;;;;;20.35;9.93;;;-2.50;75.30;;;;;;4978750;28;20056;-90
2024/01/10 08:21:07;;;;;;;22.73;12.45;;;-2.50;75.20;;;;;;4967058;28;20054;-92
2024/01/10 08:23:46;;;;;;;;;;;;;;;;;;;;;
2024/01/10 08:26:55;;;;;;;;;;;;;;;;;;;;;
2024/01/10 08:29:56;;;;;;;15.73;10.13;;;-2.40;75.00;;;;;;4971509;28;20099;-90
2024/01/10 08:33:38;;;;;;;17.17;9.63;;;-2.50;75.00;;;;;;4945825;29;20048;-90
2024/01/10 08:36:25;;;;;;;13.98;8.20;;;-2.50;74.70;;;;;;4870921;29;20151;-89
2024/01/10 08:39:12;;;;;;;;;;;;;;;;;;;;;
2024/01/10 08:42:37;;;;;;;;;;;;;;;;;;;;;
2024/01/10 08:46:24;;;;;;;;;;;;;;;;;;;;;
2024/01/10 08:49:49;;;;;;;;;;;;;;;;;;;;;
2024/01/10 08:56:54;;;;;;;11.32;6.47;;;-2.40;74.20;;;;;;4811757;29;20093;-87
2024/01/10 08:59:25;;;;;;;12.23;6.78;;;-2.40;74.00;;;;;;4844056;29;20064;-86
2024/01/10 09:02:40;;;;;;;;;;;;;;;;;;;;;
2024/01/10 09:05:58;;;;;;;;;;;;;;;;;;;;;
2024/01/10 09:49:01;;;;;;;14.77;6.97;;;-2.00;73.80;;;;;;4821546;29;20054;-86
2024/01/10 09:55:48;;;;;;;14.88;8.02;;;-1.90;74.00;;;;;;4937316;29;20153;-84
2024/01/10 09:58:30;;;;;;;21.48;8.73;;;-2.00;74.10;;;;;;4978716;28;20100;-86
2024/01/10 10:01:08;;;;;;;14.43;8.70;;;-1.90;74.30;;;;;;5011332;28;20045;-85
2024/01/10 10:03:47;;;;;;;14.80;9.10;;;-1.80;74.70;;;;;;5012690;28;20537;-85
2024/01/10 10:06:33;;;;;;;;;;;;;;;;;;;;;
2024/01/10 10:14:17;;;;;;;18.35;9.70;;;-1.60;74.70;;;;;;4940365;28;20082;-84
2024/01/10 10:17:47;;;;;;;;;;;;;;;;;;;;;
2024/01/10 10:20:39;;;;;;;17.80;8.30;;;-1.60;74.70;;;;;;4916232;29;20427;-84
2024/01/10 10:24:13;;;;;;;18.73;10.35;;;-1.60;74.70;;;;;;4995473;28;20068;-84
2024/01/10 10:27:15;;;;;;;16.77;10.70;;;-1.60;75.20;;;;;;5007770;28;20041;-84
2024/01/10 10:34:34;;;;;;;20.83;9.68;;;-1.50;75.30;;;;;;5033668;28;20453;-91
2024/01/10 10:37:45;;;;;;;16.92;9.45;;;-1.50;75.10;;;;;;4931602;29;20055;-84
2024/01/10 10:40:48;;;;;;;17.42;9.27;;;-1.40;75.60;;;;;;4979907;28;20136;-85
2024/01/10 10:43:47;;;;;;;20.48;10.02;;;-1.40;75.40;;;;;;5033963;28;20504;-84
2024/01/10 10:46:46;;;;;;;21.58;10.93;;;-1.40;75.90;;;;;;4968323;28;20533;-85
2024/01/10 10:50:30;;;;;;;23.80;12.02;;;-1.20;76.20;;;;;;4921520;29;20047;-84
2024/01/10 10:57:03;;;;;;;22.77;12.05;;;-1.20;77.00;;;;;;4934641;29;20074;-90
2024/01/10 10:59:48;;;;;;;22.02;11.77;;;-1.00;76.50;;;;;;4956332;29;20047;-90
2024/01/10 11:02:37;;;;;;;;;;;;;;;;;;;;;
2024/01/10 11:05:10;;;;;;;21.70;11.07;;;-1.10;76.30;;;;;;4948200;29;20724;-84
2024/01/10 11:07:59;;;;;;;25.05;11.02;;;-1.10;76.70;;;;;;4933644;29;20142;-85
2024/01/10 11:15:27;;;;;;;20.58;10.65;;;-0.90;77.30;;;;;;4848523;29;20063;-90
2024/01/10 11:19:33;;;;;;;24.33;12.55;;;-0.90;77.30;;;;;;4998891;28;20476;-91
2024/01/10 11:23:14;;;;;;;29.65;14.05;;;-0.80;77.40;;;;;;4921826;29;20143;-89
2024/01/10 11:27:00;;;;;;;;;;;;;;;;;;;;;
2024/01/10 11:30:39;;;;;;;36.53;16.30;;;-0.80;77.80;;;;;;4957892;28;20065;-89
2024/01/10 11:44:37;;;;;;;;;;;;;;;;;;;;;
2024/01/10 11:58:47;;;;;;;;;;;;;;;;;;;;;
2024/01/10 12:02:32;;;;;;;;;;;;;;;;;;;;;
2024/01/10 12:06:08;;;;;;;36.60;16.58;;;-0.40;79.50;;;;;;5030863;28;20064;-85
2024/01/10 12:08:50;;;;;;;63.45;25.10;;;-0.30;79.80;;;;;;4988470;28;20049;-84
2024/01/10 12:11:21;;;;;;;43.78;20.15;;;-0.20;80.20;;;;;;5015839;28;20156;-86
2024/01/10 12:13:49;;;;;;;38.85;20.05;;;-0.20;80.50;;;;;;5014864;28;20052;-88
2024/01/10 12:16:17;;;;;;;47.90;21.63;;;-0.10;80.50;;;;;;5014909;28;20042;-85
2024/01/10 12:18:55;;;;;;;;;;;;;;;;;;;;;
2024/01/10 12:21:23;;;;;;;35.35;18.90;;;0.00;81.10;;;;;;5015930;28;20050;-85
2024/01/10 12:23:52;;;;;;;51.55;23.00;;;0.00;81.00;;;;;;5033031;28;20045;-86
2024/01/10 12:26:30;;;;;;;55.17;23.90;;;0.10;81.10;;;;;;5032847;28;20049;-85
2024/01/10 12:29:00;;;;;;;48.00;23.40;;;0.10;81.40;;;;;;5033847;28;20060;-90
2024/01/10 12:31:46;;;;;;;;;;;;;;;;;;;;;
2024/01/10 12:35:06;;;;;;;45.65;21.88;;;0.30;81.50;;;;;;4952866;29;20051;-90
2024/01/10 12:38:26;;;;;;;;;;;;;;;;;;;;;
2024/01/10 12:41:48;;;;;;;;;;;;;;;;;;;;;
2024/01/10 12:45:05;;;;;;;;;;;;;;;;;;;;;
2024/01/10 12:47:42;;;;;;;44.60;22.17;;;0.50;81.60;;;;;;4917727;29;20047;-83
2024/01/10 12:50:30;;;;;;;36.10;18.92;;;0.50;81.80;;;;;;4940221;29;20053;-84
2024/01/10 12:53:10;;;;;;;45.17;20.20;;;0.50;81.90;;;;;;4936451;29;20054;-85
2024/01/10 12:55:43;;;;;;;46.03;21.88;;;0.60;82.10;;;;;;4954200;28;20059;-85
2024/01/10 12:58:11;;;;;;;40.13;18.88;;;0.60;82.10;;;;;;4956846;28;20129;-86
2024/01/10 13:00:41;;;;;;;42.63;18.98;;;0.70;82.20;;;;;;5019600;28;20049;-86
2024/01/10 13:03:09;;;;;;;31.20;18.08;;;0.70;82.30;;;;;;5038843;28;20107;-84
2024/01/10 13:05:40;;;;;;;37.70;18.85;;;0.70;82.00;;;;;;4999255;28;20498;-84
2024/01/10 13:08:19;;;;;;;26.38;14.02;;;0.70;82.00;;;;;;4975837;28;20042;-85
2024/01/10 13:10:59;;;;;;;33.63;18.23;;;0.80;82.20;;;;;;4953875;28;20070;-86
2024/01/10 13:13:47;;;;;;;38.42;18.80;;;0.80;82.40;;;;;;4930600;23;20047;-85
2024/01/10 13:16:34;;;;;;;34.22;17.70;;;0.80;82.40;;;;;;4972227;28;20054;-85
2024/01/10 13:19:36;;;;;;;36.58;17.70;;;0.80;82.40;;;;;;4967636;28;20050;-84
2024/01/10 13:22:04;;;;;;;31.52;17.60;;;0.90;82.50;;;;;;4955766;28;20051;-85
2024/01/10 13:24:32;;;;;;;30.90;17.63;;;0.90;82.50;;;;;;4973342;28;20043;-84
2024/01/10 13:27:01;;;;;;;40.92;18.77;;;0.90;82.70;;;;;;4973516;28;20050;-83
2024/01/10 13:29:32;;;;;;;40.13;20.05;;;0.90;82.70;;;;;;4955374;28;20042;-90
2024/01/10 13:32:02;;;;;;;47.30;21.70;;;1.00;82.80;;;;;;4974782;28;20542;-90
2024/01/10 13:34:30;;;;;;;54.63;22.25;;;1.00;82.90;;;;;;4938371;29;20121;-91
2024/01/10 13:36:58;;;;;;;60.20;26.77;;;1.10;82.80;;;;;;4956995;29;20090;-92
2024/01/10 13:39:26;;;;;;;60.47;26.23;;;1.00;82.70;;;;;;4949926;28;20054;-83
2024/01/10 13:41:54;;;;;;;65.43;26.98;;;1.00;82.80;;;;;;4972432;28;20054;-83
2024/01/10 13:44:21;;;;;;;59.58;25.42;;;1.00;82.90;;;;;;4940882;28;20055;-90
2024/01/10 13:46:51;;;;;;;55.13;24.08;;;1.10;83.20;;;;;;4951439;28;20047;-90
2024/01/10 13:49:19;;;;;;;56.92;24.55;;;1.10;83.10;;;;;;4964608;29;20066;-89
2024/01/10 13:51:47;;;;;;;64.38;23.20;;;1.20;83.40;;;;;;4963592;29;20055;-89
2024/01/10 13:54:14;;;;;;;76.63;27.17;;;1.30;83.60;;;;;;4946341;29;20051;-90
2024/01/10 13:56:42;;;;;;;65.53;24.98;;;1.20;83.40;;;;;;4952676;28;20047;-89
2024/01/10 13:59:10;;;;;;;64.72;23.48;;;1.30;83.50;;;;;;4975023;28;20054;-89
2024/01/10 14:01:38;;;;;;;56.00;20.25;;;1.20;83.60;;;;;;4972792;28;20507;-90
2024/01/10 14:04:10;;;;;;;39.00;18.45;;;1.30;83.70;;;;;;4934124;28;20042;-89
2024/01/10 14:06:41;;;;;;;43.30;18.58;;;1.40;83.80;;;;;;4950537;28;20051;-90
2024/01/10 14:09:12;;;;;;;34.42;14.70;;;1.40;83.80;;;;;;4962632;28;20054;-89
2024/01/10 14:11:44;;;;;;;34.20;16.50;;;1.40;83.80;;;;;;4969502;28;20082;-91
2024/01/10 14:14:12;;;;;;;24.13;11.43;;;1.50;83.80;;;;;;4960314;28;20050;-90
2024/01/10 14:16:46;;;;;;;24.83;12.18;;;1.60;83.90;;;;;;4970834;28;20486;-90
2024/01/10 14:19:16;;;;;;;19.55;10.13;;;1.60;84.20;;;;;;4985765;28;20092;-89
2024/01/10 14:21:48;;;;;;;13.73;8.68;;;1.60;84.40;;;;;;4961541;28;20045;-89
2024/01/10 14:24:16;;;;;;;13.60;8.50;;;1.70;84.70;;;;;;4998447;28;20506;-89
2024/01/10 14:26:47;;;;;;;13.00;7.75;;;1.70;84.50;;;;;;4983672;28;20073;-87
2024/01/10 14:29:17;;;;;;;8.50;5.35;;;1.90;84.80;;;;;;4972734;28;20414;-89
2024/01/10 14:31:45;;;;;;;9.32;5.95;;;1.90;84.60;;;;;;4976145;28;20068;-83
2024/01/10 14:34:15;;;;;;;11.20;6.78;;;1.90;84.70;;;;;;4982968;28;20046;-84
2024/01/10 14:36:49;;;;;;;12.90;6.60;;;2.00;84.80;;;;;;4970685;28;20157;-84
2024/01/10 14:39:20;;;;;;;7.68;4.82;;;2.00;84.70;;;;;;4988681;28;20056;-86
2024/01/10 14:41:49;;;;;;;6.00;4.95;;;2.00;84.80;;;;;;4954072;28;20061;-83
2024/01/10 14:44:17;;;;;;;7.38;4.57;;;2.00;85.20;;;;;;4977733;28;20073;-83
2024/01/10 14:46:48;;;;;;;6.75;4.07;;;2.00;85.10;;;;;;4972781;28;20050;-83
2024/01/10 14:49:19;;;;;;;7.35;3.45;;;2.10;85.10;;;;;;4991996;28;20053;-84
2024/01/10 14:51:57;;;;;;;6.57;4.05;;;2.10;85.10;;;;;;4968124;28;20149;-85
2024/01/10 14:54:24;;;;;;;5.80;3.03;;;2.00;85.10;;;;;;4991089;28;20117;-84
2024/01/10 14:56:53;;;;;;;4.03;3.55;;;2.20;85.30;;;;;;4975518;28;20057;-85
2024/01/10 14:59:31;;;;;;;6.68;4.05;;;2.30;85.00;;;;;;4988925;28;20217;-85
2024/01/10 15:01:59;;;;;;;5.93;3.40;;;2.10;84.80;;;;;;4986858;28;20054;-85
2024/01/10 15:04:29;;;;;;;4.47;3.67;;;2.10;85.20;;;;;;4990718;28;20082;-84
2024/01/10 15:07:01;;;;;;;4.57;3.35;;;2.10;85.10;;;;;;4992791;28;20137;-84
2024/01/10 15:09:32;;;;;;;8.23;3.35;;;2.10;85.20;;;;;;4973554;28;20064;-84
2024/01/10 15:12:03;;;;;;;5.68;3.35;;;2.10;85.40;;;;;;4986072;28;20251;-83
2024/01/10 15:14:49;;;;;;;;;;;;;;;;;;;;;
2024/01/10 15:17:33;;;;;;;7.55;2.70;;;2.20;85.10;;;;;;4992512;28;20049;-86
2024/01/10 15:20:09;;;;;;;5.72;2.28;;;2.30;85.10;;;;;;4987343;28;20050;-85
2024/01/10 15:22:53;;;;;;;3.08;2.30;;;2.20;85.70;;;;;;4988645;28;20053;-89
2024/01/10 15:25:25;;;;;;;4.90;3.35;;;2.10;85.20;;;;;;5008919;28;20046;-88
2024/01/10 15:28:08;;;;;;;6.60;3.33;;;2.20;85.10;;;;;;4995263;28;20054;-89
2024/01/10 15:30:36;;;;;;;4.85;2.78;;;2.10;85.50;;;;;;4986638;28;20073;-86
2024/01/10 15:33:12;;;;;;;4.22;3.20;;;2.00;86.20;;;;;;4986298;28;20446;-84
2024/01/10 15:36:05;;;;;;;4.05;3.15;;;2.10;86.00;;;;;;4978917;28;20053;-83
2024/01/10 15:38:34;;;;;;;3.05;2.75;;;2.00;86.00;;;;;;5004589;28;20058;-82
2024/01/10 15:41:02;;;;;;;3.72;2.70;;;2.20;85.80;;;;;;4991000;28;20058;-85
2024/01/10 15:43:44;;;;;;;7.57;3.50;;;2.10;85.70;;;;;;5012856;28;20096;-89
2024/01/10 15:46:20;;;;;;;5.28;3.67;;;2.10;86.00;;;;;;5013519;28;20050;-88
2024/01/10 15:48:48;;;;;;;3.63;3.28;;;2.10;85.90;;;;;;4992354;28;20511;-89
2024/01/10 15:51:16;;;;;;;4.40;3.63;;;2.30;86.00;;;;;;5006021;28;20061;-88
2024/01/10 15:53:45;;;;;;;6.95;4.32;;;2.20;85.60;;;;;;4999100;28;20113;-87
2024/01/10 15:56:15;;;;;;;4.05;2.67;;;2.30;85.60;;;;;;4995525;28;20060;-90
2024/01/10 15:58:43;;;;;;;6.53;3.53;;;2.30;85.80;;;;;;5012471;28;20100;-86
2024/01/10 16:01:21;;;;;;;6.53;4.45;;;2.20;85.30;;;;;;4996920;28;20468;-84
2024/01/10 16:03:48;;;;;;;8.23;5.28;;;2.20;85.80;;;;;;4987396;28;20088;-85
2024/01/10 16:06:18;;;;;;;6.18;3.97;;;2.20;85.70;;;;;;5011323;28;20073;-83
2024/01/10 16:08:49;;;;;;;7.75;5.75;;;2.20;85.80;;;;;;5012608;28;20046;-85
2024/01/10 16:11:20;;;;;;;10.85;6.25;;;2.20;86.00;;;;;;5015919;28;20050;-85
2024/01/10 16:13:52;;;;;;;16.38;6.78;;;2.10;85.70;;;;;;5017172;28;20046;-86
2024/01/10 16:16:26;;;;;;;12.07;6.15;;;2.10;86.30;;;;;;4997077;28;20592;-83
2024/01/10 16:19:06;;;;;;;11.27;6.43;;;2.10;86.50;;;;;;5021177;28;20049;-85
2024/01/10 16:21:43;;;;;;;17.13;7.35;;;2.10;86.70;;;;;;4993448;28;20076;-91
2024/01/10 16:24:16;;;;;;;11.20;6.93;;;2.10;86.60;;;;;;5019692;28;20066;-84
2024/01/10 16:26:44;;;;;;;12.85;7.38;;;2.20;86.60;;;;;;5006690;28;20046;-86
2024/01/10 16:29:12;;;;;;;15.85;7.90;;;2.10;86.50;;;;;;5009733;28;20528;-85
2024/01/10 16:31:40;;;;;;;11.02;6.20;;;2.20;86.80;;;;;;5016004;28;20696;-86
2024/01/10 16:34:08;;;;;;;15.68;8.07;;;2.30;86.60;;;;;;5000121;28;20050;-87
2024/01/10 16:36:41;;;;;;;11.05;7.07;;;2.20;86.50;;;;;;5016333;28;20116;-91
2024/01/10 16:39:09;;;;;;;7.97;4.82;;;2.10;86.50;;;;;;5021839;28;20064;-90
2024/01/10 16:46:14;;;;;;;11.95;7.07;;;2.20;86.30;;;;;;5000851;28;20045;-90
2024/01/10 16:48:42;;;;;;;20.88;8.07;;;2.10;86.80;;;;;;5027872;28;20076;-89
2024/01/10 16:51:17;;;;;;;15.75;7.70;;;2.10;87.00;;;;;;5025605;28;20041;-91
2024/01/10 16:54:45;;;;;;;16.23;8.40;;;2.10;86.90;;;;;;5019983;28;20049;-92
2024/01/10 16:57:56;;;;;;;;;;;;;;;;;;;;;
2024/01/10 17:01:18;;;;;;;18.45;7.72;;;2.50;86.50;;;;;;5007552;28;20048;-91
2024/01/10 17:04:28;;;;;;;;;;;;;;;;;;;;;
2024/01/10 17:08:11;;;;;;;;;;;;;;;;;;;;;
2024/01/10 17:11:20;;;;;;;;;;;;;;;;;;;;;
2024/01/10 17:15:19;;;;;;;13.95;7.50;;;2.30;87.10;;;;;;4875247;29;20088;-87
2024/01/10 17:33:12;;;;;;;;;;;;;;;;;;;;;
2024/01/10 18:02:02;;;;;;;;;;;;;;;;;;;;;
2024/01/10 18:09:44;;;;;;;;;;;;;;;;;;;;;
2024/01/10 18:13:02;;;;;;;;;;;;;;;;;;;;;
2024/01/10 18:24:02;;;;;;;;;;;;;;;;;;;;;
2024/01/10 19:17:11;;;;;;;;;;;;;;;;;;;;;
2024/01/10 19:41:23;;;;;;;4.45;1.90;;;2.80;86.30;;;;;;4907697;28;20191;-90
2024/01/10 19:44:38;;;;;;;;;;;;;;;;;;;;;
2024/01/10 19:51:39;;;;;;;2.10;2.00;;;2.80;86.10;;;;;;4939830;28;20054;-89
2024/01/10 19:55:42;;;;;;;3.97;2.33;;;2.80;86.30;;;;;;4914402;29;20052;-89
2024/01/10 20:02:10;;;;;;;;;;;;;;;;;;;;;
2024/01/10 20:05:23;;;;;;;3.30;1.85;;;2.80;86.00;;;;;;4859061;29;20044;-86
2024/01/10 20:08:59;;;;;;;;;;;;;;;;;;;;;
2024/01/10 20:15:49;;;;;;;3.75;1.65;;;2.90;85.60;;;;;;4941230;28;20055;-88
2024/01/10 20:18:46;;;;;;;2.03;1.92;;;3.00;86.00;;;;;;4945772;29;20110;-87
2024/01/10 20:22:25;;;;;;;;;;;;;;;;;;;;;
2024/01/10 20:25:55;;;;;;;2.00;1.20;;;2.90;85.50;;;;;;5055683;28;20115;-88
2024/01/10 20:33:00;;;;;;;;;;;;;;;;;;;;;
2024/01/10 20:41:03;;;;;;;;;;;;;;;;;;;;;
2024/01/10 20:44:01;;;;;;;;;;;2.80;85.60;;;;;;4869511;29;20053;-85
2024/01/10 20:47:42;;;;;;;;;;;;;;;;;;;;;
2024/01/10 20:51:07;;;;;;;4.00;1.92;;;2.90;85.70;;;;;;4941486;28;20055;-89
2024/01/10 20:53:56;;;;;;;1.83;1.58;;;2.80;85.20;;;;;;5002061;28;20056;-91
2024/01/10 20:57:06;;;;;;;4.55;1.70;;;2.90;85.10;;;;;;4988534;28;20053;-89
2024/01/10 21:00:35;;;;;;;1.40;1.15;;;2.80;85.20;;;;;;4993795;28;20050;-90
2024/01/10 21:03:28;;;;;;;;;;;;;;;;;;;;;
2024/01/10 21:06:59;;;;;;;;;;;;;;;;;;;;;
2024/01/10 21:14:46;;;;;;;;;;;;;;;;;;;;;
2024/01/10 21:18:12;;;;;;;;;;;;;;;;;;;;;
2024/01/10 21:22:19;;;;;;;;;;;;;;;;;;;;;
2024/01/10 21:36:45;;;;;;;;;;;;;;;;;;;;;
2024/01/10 21:40:32;;;;;;;1.38;0.90;;;3.00;85.60;;;;;;4997534;28;20053;-89
2024/01/10 21:43:49;;;;;;;;;;;;;;;;;;;;;
2024/01/10 21:47:21;;;;;;;2.53;0.98;;;2.90;84.40;;;;;;4939080;28;20055;-91
2024/01/10 21:49:54;;;;;;;1.45;1.08;;;3.00;85.50;;;;;;4906343;28;20149;-89
2024/01/10 21:57:38;;;;;;;;;;;;;;;;;;;;;
2024/01/10 22:04:49;;;;;;;1.40;1.00;;;3.00;85.00;;;;;;4845763;29;20126;-86
2024/01/10 22:07:27;;;;;;;3.42;1.48;;;3.00;85.00;;;;;;4894010;29;20071;-86